Time;durP1;ratioP1;P1;durP2;ratioP2;P2;SDS_P1;SDS_P2;PMS_P1;PMS_P2;Temp;Humidity;BMP_temperature;BMP_pressure;BME280_temperature;BME280_humidity;BME280_pressure;Samples;Min_cycle;Max_cycle;Signal;HPM_P1;HPM_P2
2021/05/28 05:31:10;;;;;;;11.93;9.68;;;;;;;13.73;67.95;100422.23;1762013;76;25755;-66
2021/05/28 05:33:37;;;;;;;12.80;9.13;;;;;;;13.86;67.75;100423.94;1756103;79;25811;-66
2021/05/28 05:36:05;;;;;;;12.93;9.93;;;;;;;13.97;67.63;100421.06;1737297;80;25682;-66
2021/05/28 05:38:32;;;;;;;12.33;10.03;;;;;;;14.09;67.45;100416.84;1748713;79;27390;-66
2021/05/28 05:40:59;;;;;;;11.12;9.58;;;;;;;14.17;66.94;100416.00;1743724;80;25744;-65
2021/05/28 05:43:25;;;;;;;13.32;9.45;;;;;;;14.24;66.99;100420.34;1725928;81;25664;-65
2021/05/28 05:45:51;;;;;;;13.08;9.80;;;;;;;14.33;66.67;100415.63;1746098;80;26179;-66
2021/05/28 05:48:18;;;;;;;13.08;9.33;;;;;;;14.42;66.24;100422.94;1772518;79;25781;-65
2021/05/28 05:50:44;;;;;;;15.60;9.93;;;;;;;14.45;65.65;100422.28;1761459;79;28214;-64
2021/05/28 05:53:10;;;;;;;12.95;9.78;;;;;;;14.47;66.05;100418.12;1743026;80;25756;-64
2021/05/28 05:55:37;;;;;;;11.48;9.63;;;;;;;14.58;66.06;100418.50;1760301;79;25803;-65
2021/05/28 05:58:03;;;;;;;12.70;9.88;;;;;;;14.68;65.83;100416.77;1769605;79;26409;-65
2021/05/28 06:00:29;;;;;;;13.13;10.13;;;;;;;14.84;65.87;100416.15;1774950;79;25744;-65
2021/05/28 06:02:56;;;;;;;14.50;11.33;;;;;;;14.96;65.55;100412.10;1766647;79;27314;-64
2021/05/28 06:05:22;;;;;;;12.98;9.58;;;;;;;15.11;65.26;100412.04;1769684;79;25960;-64
2021/05/28 06:07:49;;;;;;;11.28;9.50;;;;;;;15.22;64.49;100417.84;1773909;79;25769;-65
2021/05/28 06:10:15;;;;;;;12.40;9.65;;;;;;;15.26;64.34;100418.20;1771876;79;26356;-64
2021/05/28 06:12:42;;;;;;;10.70;8.68;;;;;;;15.29;63.41;100429.02;1776829;79;25698;-64
2021/05/28 06:15:09;;;;;;;13.08;8.88;;;;;;;15.25;63.26;100426.14;1770650;79;27387;-65
2021/05/28 06:17:35;;;;;;;13.32;8.90;;;;;;;15.25;62.68;100432.16;1733900;80;25838;-65
2021/05/28 06:20:04;;;;;;;17.77;8.68;;;;;;;15.28;63.32;100439.09;1742701;80;25695;-65
2021/05/28 06:22:31;;;;;;;12.13;8.98;;;;;;;15.48;64.01;100442.10;1745185;80;25828;-63
2021/05/28 06:24:58;;;;;;;12.20;9.53;;;;;;;15.67;63.53;100446.44;1735477;81;25714;-65
2021/05/28 06:27:25;;;;;;;14.45;8.83;;;;;;;15.85;63.59;100436.14;1745386;80;27387;-65
2021/05/28 06:29:51;;;;;;;10.70;8.75;;;;;;;16.11;62.97;100438.30;1739119;80;25722;-64
2021/05/28 06:32:18;;;;;;;10.48;8.90;;;;;;;16.39;63.04;100448.69;1744663;80;25854;-65
2021/05/28 06:34:44;;;;;;;9.38;8.18;;;;;;;16.78;62.53;100445.52;1732413;81;26418;-64
2021/05/28 06:37:11;;;;;;;11.97;7.75;;;;;;;17.08;61.07;100441.11;1742803;80;25708;-64
2021/05/28 06:39:37;;;;;;;9.03;7.75;;;;;;;17.27;60.79;100444.54;1743475;80;29463;-65
2021/05/28 06:42:05;;;;;;;9.38;7.67;;;;;;;17.55;60.39;100441.72;1744031;80;25851;-65
2021/05/28 06:44:31;;;;;;;9.05;7.72;;;;;;;17.76;59.65;100444.77;1755169;80;25779;-65
2021/05/28 06:46:58;;;;;;;10.72;7.05;;;;;;;18.03;58.93;100436.25;1746256;80;27842;-65
2021/05/28 06:49:24;;;;;;;10.50;6.33;;;;;;;18.39;59.12;100434.30;1738623;80;25857;-65
2021/05/28 06:51:51;;;;;;;7.92;5.97;;;;;;;18.61;57.38;100434.17;1737066;81;29651;-64
2021/05/28 06:54:18;;;;;;;7.28;5.70;;;;;;;18.71;56.01;100439.11;1734616;80;25814;-65
2021/05/28 06:56:45;;;;;;;5.80;4.47;;;;;;;18.74;55.08;100437.58;1738932;80;25757;-65
2021/05/28 06:59:12;;;;;;;5.20;4.67;;;;;;;18.59;54.23;100432.38;1734265;80;26803;-65
2021/05/28 07:01:38;;;;;;;6.45;5.85;;;;;;;18.61;54.98;100434.17;1744292;80;25760;-65
2021/05/28 07:04:05;;;;;;;6.70;4.92;;;;;;;18.81;55.26;100437.71;1717487;81;27324;-64
2021/05/28 07:06:33;;;;;;;7.47;5.85;;;;;;;18.98;54.61;100435.13;1726573;80;25772;-65
2021/05/28 07:09:00;;;;;;;6.55;5.67;;;;;;;19.11;53.88;100438.52;1737017;80;25879;-64
2021/05/28 07:11:26;;;;;;;7.15;6.45;;;;;;;18.97;51.89;100442.58;1732098;81;26362;-65
2021/05/28 07:13:53;;;;;;;6.72;6.03;;;;;;;18.77;52.76;100440.39;1738856;80;25725;-65
2021/05/28 07:16:20;;;;;;;5.90;4.47;;;;;;;18.72;53.13;100446.16;1740299;80;27317;-65
2021/05/28 07:18:47;;;;;;;6.62;4.33;;;;;;;18.53;51.75;100436.57;1743082;80;25729;-65
2021/05/28 07:21:13;;;;;;;6.25;4.75;;;;;;;18.34;51.88;100442.80;1722743;80;25728;-65
2021/05/28 07:23:40;;;;;;;5.90;5.30;;;;;;;18.29;51.97;100438.41;1727771;81;26438;-65
2021/05/28 07:26:06;;;;;;;8.28;5.60;;;;;;;18.17;52.27;100437.95;1731192;80;25940;-63
2021/05/28 07:28:33;;;;;;;4.75;4.25;;;;;;;18.09;52.58;100440.31;1734507;81;28504;-65
2021/05/28 07:31:00;;;;;;;6.22;5.62;;;;;;;18.15;52.68;100438.08;1734701;81;25810;-65
2021/05/28 07:33:27;;;;;;;6.55;4.30;;;;;;;18.24;52.08;100445.53;1734704;81;26314;-65
2021/05/28 07:35:54;;;;;;;9.35;4.00;;;;;;;18.40;52.66;100443.53;1729943;80;25625;-66
2021/05/28 07:38:21;;;;;;;9.05;5.30;;;;;;;18.61;52.58;100445.12;1735004;80;25677;-65
2021/05/28 07:40:47;;;;;;;5.08;4.42;;;;;;;18.72;52.43;100443.41;1734559;80;27238;-65
2021/05/28 07:43:14;;;;;;;9.25;3.67;;;;;;;18.74;51.18;100443.84;1734374;80;25955;-65
2021/05/28 07:45:42;;;;;;;11.15;4.22;;;;;;;18.77;51.25;100451.34;1726718;80;25891;-67
2021/05/28 07:48:09;;;;;;;5.17;3.83;;;;;;;18.83;50.97;100448.58;1762751;79;25690;-66
2021/05/28 07:50:48;;;;;;;5.50;4.22;;;;;;;18.90;51.50;100441.07;1773874;79;25832;-66
2021/05/28 07:53:18;;;;;;;;;;;;;;;19.11;49.70;100455.75;1720210;81;27406;-68
2021/05/28 07:55:46;;;;;;;3.65;3.35;;;;;;;19.36;51.79;100452.69;1776879;79;25802;-67
2021/05/28 07:58:12;;;;;;;5.00;3.10;;;;;;;19.86;48.48;100450.80;1773988;79;25779;-65
2021/05/28 08:00:39;;;;;;;4.40;3.17;;;;;;;20.09;48.87;100456.26;1742741;80;25721;-65
2021/05/28 08:03:05;;;;;;;3.02;2.05;;;;;;;20.20;47.20;100454.25;1759782;79;25782;-64
2021/05/28 08:05:33;;;;;;;3.92;3.05;;;;;;;20.25;47.24;100468.44;1774382;79;27278;-65
2021/05/28 08:08:00;;;;;;;8.80;3.70;;;;;;;20.06;45.94;100456.20;1761954;79;25811;-62
2021/05/28 08:10:29;;;;;;;3.12;2.55;;;;;;;20.08;45.83;100449.17;1767336;79;25710;-64
2021/05/28 08:12:56;;;;;;;4.58;2.27;;;;;;;20.26;45.42;100455.49;1756870;79;26302;-64
2021/05/28 08:15:24;;;;;;;5.60;2.80;;;;;;;20.21;44.86;100448.39;1767251;79;25621;-64
2021/05/28 08:17:51;;;;;;;4.37;2.25;;;;;;;20.08;44.97;100454.66;1771567;79;27308;-64
2021/05/28 08:20:18;;;;;;;4.35;2.58;;;;;;;20.05;44.77;100456.77;1772753;79;25820;-65
2021/05/28 08:22:45;;;;;;;9.68;3.20;;;;;;;20.24;44.30;100451.73;1769197;79;25966;-65
2021/05/28 08:25:13;;;;;;;5.60;3.98;;;;;;;20.60;43.89;100460.48;1757246;79;25751;-65
2021/05/28 08:27:40;;;;;;;4.72;3.50;;;;;;;21.01;44.67;100457.05;1738674;79;25869;-65
2021/05/28 08:30:08;;;;;;;5.50;3.58;;;;;;;21.23;43.35;100454.75;1763209;79;28034;-65
2021/05/28 08:32:35;;;;;;;4.78;4.08;;;;;;;21.19;43.30;100460.78;1756287;79;25704;-64
2021/05/28 08:35:03;;;;;;;4.50;3.90;;;;;;;21.43;43.42;100462.78;1770669;79;25635;-65
2021/05/28 08:37:31;;;;;;;4.28;3.40;;;;;;;21.51;44.34;100454.05;1767722;79;26227;-65
2021/05/28 08:39:57;;;;;;;4.00;3.60;;;;;;;21.87;44.60;100462.59;1781967;79;25727;-65
2021/05/28 08:42:23;;;;;;;4.42;3.25;;;;;;;22.30;44.29;100454.64;1770059;79;28229;-65
2021/05/28 08:44:50;;;;;;;6.67;3.55;;;;;;;22.91;43.83;100459.05;1733510;80;25866;-65
2021/05/28 08:47:17;;;;;;;5.37;3.20;;;;;;;23.07;42.37;100457.33;1768861;79;25720;-65
2021/05/28 08:49:52;;;;;;;3.55;3.17;;;;;;;22.99;41.89;100452.98;1767446;79;25710;-65
2021/05/28 08:52:21;;;;;;;7.60;2.62;;;;;;;22.67;41.25;100461.31;1730741;80;25717;-65
2021/05/28 08:54:49;;;;;;;6.03;2.43;;;;;;;22.22;40.77;100463.44;1763824;79;28082;-66
2021/05/28 08:57:20;;;;;;;3.05;2.17;;;;;;;21.92;41.11;100458.11;1770734;79;25700;-64
2021/05/28 08:59:47;;;;;;;3.77;2.25;;;;;;;22.02;42.59;100451.89;1772739;79;25760;-65
2021/05/28 09:02:40;;;;;;;5.00;2.83;;;;;;;22.54;41.84;100451.23;1773640;79;26870;-65
2021/05/28 09:05:22;;;;;;;3.52;1.47;;;;;;;22.54;40.90;100450.42;1767223;79;25649;-65
2021/05/28 09:07:59;;;;;;;1.52;1.42;;;;;;;22.28;40.13;100452.27;1760206;79;27156;-65
2021/05/28 09:10:33;;;;;;;3.35;1.50;;;;;;;22.64;41.20;100442.01;1748719;80;26073;-66
2021/05/28 09:13:12;;;;;;;1.85;1.25;;;;;;;23.06;39.86;100444.73;1725636;80;25789;-65
2021/05/28 09:15:42;;;;;;;2.35;1.55;;;;;;;23.36;37.89;100444.41;1737285;80;25760;-66
2021/05/28 09:18:09;;;;;;;5.42;2.17;;;;;;;23.43;37.71;100440.27;1740176;80;25688;-67
2021/05/28 09:20:36;;;;;;;5.20;2.00;;;;;;;23.72;39.30;100438.89;1717132;80;27380;-66
2021/05/28 09:23:19;;;;;;;2.37;1.92;;;;;;;24.29;37.80;100444.14;1745488;80;25718;-65
2021/05/28 09:26:04;;;;;;;4.70;1.75;;;;;;;24.16;37.11;100439.63;1704868;83;25933;-64
2021/05/28 09:28:49;;;;;;;4.22;3.05;;;;;;;23.80;37.26;100442.42;1718031;81;26497;-66
2021/05/28 09:31:19;;;;;;;2.87;1.70;;;;;;;23.55;37.88;100434.95;1687827;82;25884;-65
2021/05/28 09:33:50;;;;;;;2.15;1.80;;;;;;;24.06;38.21;100423.29;1711210;82;27311;-64
2021/05/28 09:36:26;;;;;;;1.62;1.52;;;;;;;24.32;36.64;100437.83;1719907;81;25747;-67
2021/05/28 09:39:07;;;;;;;6.50;1.57;;;;;;;24.44;36.47;100424.94;1712782;82;25818;-66
2021/05/28 09:41:49;;;;;;;5.10;1.50;;;;;;;24.68;36.54;100425.27;1709012;82;27767;-66
2021/05/28 09:44:23;;;;;;;3.25;1.25;;;;;;;25.25;36.42;100423.55;1696997;82;25889;-65
2021/05/28 09:47:19;;;;;;;6.05;1.85;;;;;;;25.26;34.58;100421.59;1705867;82;27339;-67
2021/05/28 09:49:51;;;;;;;1.40;1.30;;;;;;;25.37;34.53;100424.27;1698355;82;25882;-65
2021/05/28 09:52:24;;;;;;;2.40;1.20;;;;;;;25.42;34.28;100417.72;1698095;82;25866;-67
2021/05/28 09:55:06;;;;;;;3.17;1.42;;;;;;;25.45;32.18;100427.18;1710227;81;26262;-65
2021/05/28 09:57:49;;;;;;;4.08;1.22;;;;;;;25.27;32.71;100423.95;1710069;81;25825;-66
2021/05/28 10:00:29;;;;;;;1.20;0.78;;;;;;;25.44;32.18;100424.23;1691076;81;27320;-66
2021/05/28 10:03:18;;;;;;;1.82;1.15;;;;;;;25.28;31.85;100415.83;1729008;80;26504;-65
2021/05/28 10:05:56;;;;;;;1.60;1.10;;;;;;;25.21;32.05;100406.77;1741272;80;25725;-65
2021/05/28 10:08:26;;;;;;;1.10;1.00;;;;;;;25.51;32.11;100407.56;1731171;80;26201;-67
2021/05/28 10:10:55;;;;;;;1.90;0.80;;;;;;;26.00;32.83;100410.27;1753434;80;26235;-66
2021/05/28 10:13:25;;;;;;;0.62;0.50;;;;;;;26.50;31.49;100402.00;1729345;80;27443;-65
2021/05/28 10:15:54;;;;;;;0.60;0.60;;;;;;;26.67;29.66;100403.77;1751283;79;25659;-66
2021/05/28 10:18:23;;;;;;;1.35;0.70;;;;;;;26.57;30.54;100392.97;1750490;80;25654;-67
2021/05/28 10:20:53;;;;;;;1.62;0.90;;;;;;;26.48;29.83;100389.93;1738100;80;26554;-66
2021/05/28 10:23:25;;;;;;;0.78;0.72;;;;;;;26.46;30.26;100395.11;1732275;81;25831;-66
2021/05/28 10:25:57;;;;;;;0.90;0.90;;;;;;;26.21;29.16;100406.50;1729795;80;27891;-66
2021/05/28 10:28:33;;;;;;;0.95;0.90;;;;;;;25.76;30.04;100400.99;1728404;81;25899;-66
2021/05/28 10:30:59;;;;;;;6.45;5.25;;;;;;;25.59;30.14;100402.73;1735026;80;26354;-66
2021/05/28 10:33:31;;;;;;;1.95;1.15;;;;;;;25.40;31.69;100402.70;1738581;80;25503;-66
2021/05/28 10:36:09;;;;;;;2.02;1.10;;;;;;;25.69;31.29;100412.92;1735036;80;26278;-66
2021/05/28 10:38:41;;;;;;;3.75;1.07;;;;;;;25.65;29.91;100394.95;1747025;80;27326;-67
2021/05/28 10:41:15;;;;;;;2.02;0.65;;;;;;;26.05;32.46;100398.73;1744617;80;25902;-66
2021/05/28 10:43:59;;;;;;;0.60;0.60;;;;;;;26.47;30.44;100400.83;1738348;80;25685;-66
2021/05/28 10:46:26;;;;;;;0.88;0.70;;;;;;;26.82;30.63;100387.11;1741680;80;26146;-66
2021/05/28 10:49:09;;;;;;;0.72;0.50;;;;;;;27.43;30.68;100395.14;1728987;80;25675;-64
2021/05/28 10:51:41;;;;;;;1.00;0.90;;;;;;;27.92;29.84;100391.31;1724549;80;28085;-65
2021/05/28 10:54:19;;;;;;;3.00;1.00;;;;;;;28.09;28.13;100396.94;1741985;80;25832;-64
2021/05/28 10:56:46;;;;;;;2.45;0.82;;;;;;;27.71;27.61;100387.50;1735618;80;25874;-64
2021/05/28 10:59:15;;;;;;;0.80;0.80;;;;;;;27.17;28.36;100384.98;1743790;80;26579;-64
2021/05/28 11:01:57;;;;;;;2.17;1.10;;;;;;;27.54;29.72;100387.39;1736516;80;25765;-64
2021/05/28 11:04:34;;;;;;;1.30;1.20;;;;;;;27.69;28.38;100376.81;1738520;81;27321;-65
2021/05/28 11:07:12;;;;;;;3.35;1.70;;;;;;;27.43;28.73;100381.84;1739933;80;25849;-65
2021/05/28 11:09:51;;;;;;;1.20;1.10;;;;;;;27.56;29.37;100380.02;1764515;78;26007;-64
2021/05/28 11:12:40;;;;;;;3.58;1.20;;;;;;;27.34;28.29;100369.89;1766612;79;25685;-64
2021/05/28 11:15:18;;;;;;;1.45;1.20;;;;;;;26.72;27.75;100374.79;1735517;81;33531;-64
2021/05/28 11:18:03;;;;;;;3.40;0.60;;;;;;;26.20;28.89;100366.11;1731554;80;27396;-64
2021/05/28 11:20:39;;;;;;;1.00;0.80;;;;;;;26.26;29.38;100366.63;1742607;80;25728;-64
2021/05/28 11:23:23;;;;;;;1.32;0.90;;;;;;;26.81;29.69;100362.55;1746290;80;25699;-63
2021/05/28 11:25:53;;;;;;;3.72;1.05;;;;;;;26.89;28.18;100368.19;1721140;80;26236;-62
2021/05/28 11:28:20;;;;;;;1.67;0.93;;;;;;;26.31;28.14;100379.25;1753433;80;25796;-64
2021/05/28 11:30:52;;;;;;;2.33;1.00;;;;;;;25.54;29.07;100374.30;1748862;80;27327;-63
2021/05/28 11:33:41;;;;;;;1.55;1.20;;;;;;;25.16;29.19;100383.88;1739640;80;26513;-63
2021/05/28 11:36:31;;;;;;;1.62;1.25;;;;;;;24.50;30.17;100372.20;1741193;80;25772;-63
2021/05/28 11:39:11;;;;;;;1.52;1.07;;;;;;;24.02;31.52;100366.67;1741100;80;25865;-63
2021/05/28 11:42:04;;;;;;;1.95;1.30;;;;;;;24.54;31.24;100368.03;1751604;80;25863;-64
2021/05/28 11:44:34;;;;;;;3.22;0.80;;;;;;;24.69;31.50;100367.38;1745545;80;27414;-63
2021/05/28 11:47:03;;;;;;;1.72;1.07;;;;;;;25.07;31.27;100374.45;1747303;79;25764;-63
2021/05/28 11:49:30;;;;;;;4.62;3.00;;;;;;;24.80;30.27;100373.03;1741349;80;25757;-65
2021/05/28 11:52:08;;;;;;;1.25;0.90;;;;;;;24.42;30.56;100377.57;1740181;80;25849;-65
2021/05/28 11:54:37;;;;;;;0.85;0.70;;;;;;;24.03;30.25;100382.64;1756335;80;25936;-64
2021/05/28 11:57:13;;;;;;;1.10;1.00;;;;;;;23.49;30.90;100388.20;1743365;80;28007;-63
2021/05/28 11:59:56;;;;;;;2.95;1.30;;;;;;;23.22;31.62;100388.58;1746483;80;26605;-63
2021/05/28 12:02:47;;;;;;;1.72;1.42;;;;;;;22.84;32.89;100385.95;1775662;79;27095;-64
2021/05/28 12:05:22;;;;;;;4.05;1.50;;;;;;;22.59;34.28;100381.14;1774214;79;26470;-65
2021/05/28 12:07:50;;;;;;;3.87;1.57;;;;;;;22.37;35.09;100384.41;1740865;80;25732;-64
2021/05/28 12:10:20;;;;;;;6.45;1.37;;;;;;;22.28;35.56;100389.50;1710501;81;27334;-63
2021/05/28 12:12:59;;;;;;;2.52;1.37;;;;;;;22.23;35.55;100388.45;1739439;80;25849;-64
2021/05/28 12:15:35;;;;;;;3.12;2.72;;;;;;;22.00;36.05;100382.64;1731258;80;25744;-65
2021/05/28 12:18:23;;;;;;;1.80;1.37;;;;;;;21.77;36.40;100384.26;1750793;79;25875;-64
2021/05/28 12:21:01;;;;;;;2.40;1.32;;;;;;;22.04;37.97;100382.06;1681879;82;25963;-64
2021/05/28 12:23:32;;;;;;;2.42;1.42;;;;;;;22.81;37.48;100379.23;1675659;82;27399;-64
2021/05/28 12:26:20;;;;;;;2.17;1.10;;;;;;;23.22;36.11;100378.93;1683645;83;25845;-64
2021/05/28 12:28:52;;;;;;;1.65;0.90;;;;;;;23.79;35.46;100382.87;1679975;82;25780;-64
2021/05/28 12:31:22;;;;;;;4.42;1.02;;;;;;;23.97;33.58;100389.75;1687871;82;25855;-65
2021/05/28 12:34:05;;;;;;;0.53;0.53;;;;;;;24.19;33.65;100402.31;1693216;81;25765;-65
2021/05/28 12:36:36;;;;;;;0.50;0.47;;;;;;;24.14;32.91;100388.91;1711163;82;27402;-65
2021/05/28 12:39:15;;;;;;;0.85;0.50;;;;;;;23.96;31.90;100390.95;1725713;81;25847;-66
2021/05/28 12:41:45;;;;;;;2.45;0.50;;;;;;;24.02;33.52;100390.15;1675059;83;35044;-64
2021/05/28 12:44:22;;;;;;;0.70;0.50;;;;;;;24.36;31.99;100397.91;1684104;83;26063;-64
2021/05/28 12:46:59;;;;;;;0.70;0.62;;;;;;;24.32;32.12;100393.60;1680799;83;25716;-65
2021/05/28 12:49:31;;;;;;;3.25;0.68;;;;;;;24.22;31.83;100398.75;1675002;82;27340;-64
2021/05/28 12:51:58;;;;;;;2.10;0.40;;;;;;;23.87;31.36;100405.15;1686098;81;25855;-64
2021/05/28 12:54:28;;;;;;;0.75;0.50;;;;;;;23.50;31.61;100399.45;1667970;84;25763;-63
2021/05/28 12:57:02;;;;;;;0.78;0.45;;;;;;;23.16;31.96;100410.09;1674921;82;26471;-63
2021/05/28 12:59:33;;;;;;;7.85;3.00;;;;;;;22.78;31.75;100398.53;1728521;80;25832;-63
2021/05/28 13:02:13;;;;;;;4.70;0.85;;;;;;;22.49;32.47;100390.16;1769672;79;27271;-64
2021/05/28 13:04:53;;;;;;;2.58;0.72;;;;;;;22.65;33.27;100390.63;1775724;78;27309;-64
2021/05/28 13:07:45;;;;;;;1.45;0.75;;;;;;;23.25;34.18;100396.69;1754161;79;25871;-63
2021/05/28 13:10:19;;;;;;;3.00;0.60;;;;;;;23.61;33.11;100392.54;1758200;79;26715;-65
2021/05/28 13:12:46;;;;;;;0.90;0.72;;;;;;;23.72;32.93;100389.76;1708522;82;25870;-74
2021/05/28 13:15:24;;;;;;;1.62;0.90;;;;;;;23.81;32.58;100381.87;1741812;80;27378;-61
2021/05/28 13:17:55;;;;;;;2.33;0.65;;;;;;;23.79;32.28;100392.53;1743099;79;26119;-59
2021/05/28 13:20:25;;;;;;;1.07;0.70;;;;;;;23.91;32.56;100383.08;1731673;80;25721;-59
2021/05/28 13:22:54;;;;;;;2.17;0.82;;;;;;;23.95;32.48;100378.31;1738247;80;25928;-59
2021/05/28 13:25:41;;;;;;;1.12;0.80;;;;;;;23.81;32.83;100378.54;1741215;80;25650;-59
2021/05/28 13:28:18;;;;;;;3.20;0.68;;;;;;;23.80;32.67;100371.42;1742426;80;27474;-59
2021/05/28 13:30:55;;;;;;;3.08;0.80;;;;;;;24.05;33.06;100369.20;1738437;81;26449;-60
2021/05/28 13:33:33;;;;;;;1.75;0.85;;;;;;;24.40;31.73;100373.82;1737121;80;26537;-60
2021/05/28 13:36:12;;;;;;;3.25;0.82;;;;;;;24.50;31.05;100370.02;1739539;80;25760;-59
2021/05/28 13:38:45;;;;;;;1.02;0.72;;;;;;;24.50;31.63;100364.48;1731503;81;25785;-59
2021/05/28 13:41:18;;;;;;;3.08;0.90;;;;;;;24.57;30.44;100369.42;1739753;80;27382;-59
2021/05/28 13:43:45;;;;;;;1.10;0.90;;;;;;;24.30;30.31;100366.97;1770614;79;25716;-56
2021/05/28 13:46:12;;;;;;;2.00;0.65;;;;;;;24.07;30.92;100361.91;1743731;80;26342;-61
2021/05/28 13:48:40;;;;;;;0.93;0.80;;;;;;;24.33;31.79;100364.19;1742566;81;25831;-58
2021/05/28 13:51:10;;;;;;;1.95;0.68;;;;;;;24.28;31.12;100369.32;1744661;80;26341;-59
2021/05/28 13:53:37;;;;;;;1.40;0.68;;;;;;;24.04;30.33;100368.43;1740904;79;27322;-62
2021/05/28 13:56:06;;;;;;;3.10;0.80;;;;;;;23.41;30.89;100365.36;1751412;80;25811;-64
2021/05/28 13:58:34;;;;;;;1.35;0.70;;;;;;;22.93;31.14;100372.00;1737021;80;25664;-73
2021/05/28 14:01:01;;;;;;;4.67;1.10;;;;;;;22.36;31.61;100371.23;1743358;80;25737;-68
2021/05/28 14:03:29;;;;;;;0.60;0.60;;;;;;;21.93;32.20;100372.37;1747099;80;25847;-68
2021/05/28 14:05:56;;;;;;;1.15;0.93;;;;;;;21.48;32.45;100376.38;1735862;80;27045;-68
2021/05/28 14:08:23;;;;;;;1.00;0.80;;;;;;;21.09;32.81;100376.21;1746743;81;27269;-68
2021/05/28 14:10:51;;;;;;;0.80;0.80;;;;;;;20.86;33.71;100379.14;1738450;80;25824;-67
2021/05/28 14:13:19;;;;;;;3.95;0.90;;;;;;;20.64;34.62;100381.65;1747030;80;26450;-67
2021/05/28 14:15:46;;;;;;;2.67;1.32;;;;;;;20.43;35.36;100377.23;1738631;80;25756;-67
2021/05/28 14:18:12;;;;;;;5.30;1.45;;;;;;;20.22;36.06;100386.01;1735513;81;27333;-66
2021/05/28 14:20:40;;;;;;;1.65;1.50;;;;;;;19.98;36.38;100376.27;1739640;80;25785;-67
2021/05/28 14:23:09;;;;;;;2.60;1.35;;;;;;;19.82;36.46;100380.53;1738844;79;25709;-66
2021/05/28 14:25:37;;;;;;;7.37;1.40;;;;;;;19.76;36.78;100381.44;1736730;80;32676;-63
2021/05/28 14:28:07;;;;;;;3.77;1.47;;;;;;;19.68;37.60;100379.16;1732619;80;25781;-62
2021/05/28 14:30:35;;;;;;;4.83;1.52;;;;;;;19.54;37.55;100377.55;1735122;80;27372;-65
2021/05/28 14:33:02;;;;;;;2.83;1.40;;;;;;;19.32;38.08;100375.03;1738211;80;25817;-65
2021/05/28 14:35:32;;;;;;;2.17;1.60;;;;;;;19.25;38.33;100374.33;1731144;82;25800;-66
2021/05/28 14:37:58;;;;;;;3.15;1.40;;;;;;;19.37;38.47;100383.73;1738742;81;25717;-66
2021/05/28 14:40:25;;;;;;;1.70;1.60;;;;;;;19.37;38.47;100383.73;1766788;79;25886;-59
2021/05/28 14:42:52;;;;;;;1.70;1.60;;;;;;;19.23;38.80;100367.84;1776045;78;27476;-59
2021/05/28 14:45:20;;;;;;;3.85;2.47;;;;;;;19.20;39.25;100371.89;1757946;79;25746;-59
2021/05/28 14:47:49;;;;;;;3.33;3.02;;;;;;;19.08;39.39;100372.86;1782011;78;25708;-58
2021/05/28 14:50:15;;;;;;;3.12;2.45;;;;;;;19.06;39.91;100373.03;1778843;79;25893;-58
2021/05/28 14:52:42;;;;;;;2.55;2.42;;;;;;;19.04;40.04;100380.24;1757517;79;25712;-58
2021/05/28 14:55:10;;;;;;;5.28;1.95;;;;;;;19.03;40.50;100379.46;1759033;79;27311;-57
2021/05/28 14:57:39;;;;;;;4.05;2.77;;;;;;;18.99;41.08;100379.95;1781053;79;25788;-58
2021/05/28 15:00:11;;;;;;;3.33;2.77;;;;;;;18.94;41.52;100373.41;1781602;79;25707;-56
2021/05/28 15:02:40;;;;;;;2.30;2.10;;;;;;;18.92;42.34;100374.35;1769867;79;26187;-56
2021/05/28 15:05:09;;;;;;;3.15;2.95;;;;;;;18.92;42.76;100378.46;1744106;80;25772;-55
2021/05/28 15:07:36;;;;;;;3.75;1.98;;;;;;;18.93;42.86;100369.66;1742603;80;27316;-57
2021/05/28 15:10:05;;;;;;;2.45;2.25;;;;;;;18.97;42.78;100372.69;1739615;80;25781;-68
2021/05/28 15:12:32;;;;;;;;;;;;;;;19.03;42.55;100373.98;1768898;79;26182;-66
2021/05/28 15:14:58;;;;;;;6.12;1.90;;;;;;;19.08;42.73;100374.82;1773705;79;25826;-67
2021/05/28 15:17:25;;;;;;;2.02;1.80;;;;;;;19.09;42.77;100371.72;1743740;80;25630;-68
2021/05/28 15:19:53;;;;;;;3.52;2.10;;;;;;;19.10;42.62;100370.55;1737635;80;27356;-68
2021/05/28 15:22:20;;;;;;;2.65;2.20;;;;;;;19.15;42.93;100372.20;1739565;80;25798;-67
2021/05/28 15:24:48;;;;;;;3.92;2.00;;;;;;;19.13;43.48;100377.26;1747698;80;25785;-67
2021/05/28 15:27:14;;;;;;;2.58;1.98;;;;;;;19.08;43.65;100378.34;1742326;80;25934;-66
2021/05/28 15:29:40;;;;;;;3.55;3.25;;;;;;;19.09;43.91;100379.16;1741007;80;26340;-66
2021/05/28 15:32:08;;;;;;;3.40;2.40;;;;;;;19.12;44.05;100377.84;1736563;80;27284;-66
2021/05/28 15:34:37;;;;;;;3.30;2.00;;;;;;;19.15;44.48;100372.98;1739361;80;25682;-66
2021/05/28 15:37:05;;;;;;;2.90;2.22;;;;;;;19.16;44.29;100371.05;1735369;80;25832;-66
2021/05/28 15:39:32;;;;;;;3.90;3.60;;;;;;;19.20;44.38;100369.16;1713605;81;26324;-67
2021/05/28 15:42:00;;;;;;;6.58;5.75;;;;;;;19.25;44.12;100362.58;1730574;80;25677;-67
2021/05/28 15:44:28;;;;;;;8.43;3.30;;;;;;;19.29;44.21;100362.05;1737291;80;27004;-64
2021/05/28 15:46:57;;;;;;;2.87;2.67;;;;;;;19.34;44.51;100363.11;1743304;80;25936;-65
2021/05/28 15:49:24;;;;;;;2.27;2.08;;;;;;;19.46;44.32;100360.20;1743251;80;26337;-65
2021/05/28 15:51:51;;;;;;;2.80;2.50;;;;;;;19.54;44.15;100355.59;1739890;80;26450;-66
2021/05/28 15:54:17;;;;;;;3.45;3.15;;;;;;;19.59;44.13;100350.58;1746120;80;25882;-68
2021/05/28 15:56:44;;;;;;;3.37;3.08;;;;;;;19.67;43.67;100355.61;1745891;80;27474;-66
2021/05/28 15:59:10;;;;;;;3.65;3.35;;;;;;;19.71;43.56;100347.42;1738995;80;26452;-71
2021/05/28 16:01:38;;;;;;;5.12;4.62;;;;;;;19.78;43.61;100346.19;1735573;80;26429;-68
2021/05/28 16:04:05;;;;;;;5.05;4.65;;;;;;;19.83;43.64;100345.08;1742856;80;26552;-65
2021/05/28 16:06:32;;;;;;;5.53;4.90;;;;;;;19.87;43.42;100345.91;1742742;80;25684;-66
2021/05/28 16:08:59;;;;;;;5.20;4.83;;;;;;;19.94;43.00;100346.81;1741231;80;27325;-64
2021/05/28 16:11:26;;;;;;;5.90;5.40;;;;;;;19.92;42.36;100339.53;1746689;80;25847;-63
2021/05/28 16:13:53;;;;;;;5.60;3.62;;;;;;;19.96;42.38;100348.59;1732236;80;25698;-65
2021/05/28 16:16:20;;;;;;;4.53;4.12;;;;;;;20.00;41.82;100346.49;1749805;81;25844;-65
2021/05/28 16:18:46;;;;;;;5.75;5.25;;;;;;;20.00;41.74;100342.37;1745182;80;25723;-65
2021/05/28 16:21:13;;;;;;;4.85;4.45;;;;;;;20.02;41.65;100349.06;1745553;80;27291;-64
2021/05/28 16:23:39;;;;;;;4.47;4.17;;;;;;;19.98;41.53;100347.45;1741539;81;25851;-66
2021/05/28 16:26:06;;;;;;;5.03;4.72;;;;;;;19.84;41.02;100348.83;1733050;80;26269;-64
2021/05/28 16:28:32;;;;;;;5.97;5.00;;;;;;;19.70;41.08;100343.09;1750261;80;26423;-65
2021/05/28 16:30:59;;;;;;;6.97;6.30;;;;;;;19.54;41.11;100343.25;1736399;81;25673;-62
2021/05/28 16:33:47;;;;;;;5.17;4.70;;;;;;;19.39;41.22;100344.42;1744550;80;27362;-63
2021/05/28 16:36:13;;;;;;;5.03;4.62;;;;;;;19.25;41.45;100337.91;1675207;83;26668;-63
2021/05/28 16:38:39;;;;;;;5.12;4.72;;;;;;;19.14;41.62;100345.37;1673219;83;25719;-62
2021/05/28 16:41:06;;;;;;;4.58;4.20;;;;;;;19.06;41.91;100338.17;1681207;83;26062;-62
2021/05/28 16:43:33;;;;;;;5.00;4.50;;;;;;;18.97;42.25;100346.64;1685224;83;26042;-63
2021/05/28 16:46:00;;;;;;;6.00;5.60;;;;;;;18.86;42.54;100341.54;1693059;82;27529;-63
2021/05/28 16:48:27;;;;;;;5.85;5.22;;;;;;;18.73;42.49;100349.12;1710891;82;25809;-63
2021/05/28 16:50:59;;;;;;;4.90;4.50;;;;;;;18.64;42.66;100347.98;1701783;82;25868;-63
2021/05/28 16:53:31;;;;;;;7.30;6.67;;;;;;;18.54;43.06;100347.76;1689654;82;26574;-63
2021/05/28 16:56:00;;;;;;;6.12;5.42;;;;;;;18.45;43.23;100349.34;1700657;82;25975;-62
2021/05/28 16:58:27;;;;;;;5.97;4.83;;;;;;;18.37;43.57;100353.09;1701474;82;27280;-63
2021/05/28 17:00:54;;;;;;;9.30;8.60;;;;;;;18.32;43.86;100352.01;1682559;83;27084;-62
2021/05/28 17:03:22;;;;;;;8.58;8.00;;;;;;;18.26;44.11;100350.93;1678004;83;26787;-64
2021/05/28 17:05:51;;;;;;;6.53;5.37;;;;;;;18.21;44.26;100351.80;1686612;82;26760;-64
2021/05/28 17:08:21;;;;;;;5.22;4.85;;;;;;;18.14;44.58;100352.44;1655615;84;25788;-57
2021/05/28 17:10:47;;;;;;;15.95;14.68;;;;;;;18.11;44.94;100356.67;1641570;83;27362;-58